Time;durP1;ratioP1;P1;durP2;ratioP2;P2;SDS_P1;SDS_P2;PMS_P1;PMS_P2;Temp;Humidity;BMP_temperature;BMP_pressure;BME280_temperature;BME280_humidity;BME280_pressure;Samples;Min_cycle;Max_cycle;Signal;HPM_P1;HPM_P2
2023/02/02 00:00:06;;;;;;;12.88;2.83;;;;;;;3.31;100.00;100763.25;5081050;28;20036;-83
2023/02/02 00:02:33;;;;;;;16.58;4.85;;;;;;;3.36;100.00;100771.09;5085760;28;20036;-83
2023/02/02 00:04:59;;;;;;;8.30;2.47;;;;;;;3.38;100.00;100766.84;5086588;28;20048;-80
2023/02/02 00:07:26;;;;;;;13.95;2.40;;;;;;;3.45;100.00;100773.88;5093905;28;20044;-84
2023/02/02 00:09:52;;;;;;;14.93;2.50;;;;;;;3.47;100.00;100768.78;5082990;28;20044;-79
2023/02/02 00:12:19;;;;;;;29.25;5.50;;;;;;;3.50;100.00;100770.56;5077824;28;20045;-79
2023/02/02 00:14:45;;;;;;;12.18;2.58;;;;;;;3.54;100.00;100759.44;5091162;28;20050;-78
2023/02/02 00:17:12;;;;;;;10.77;2.90;;;;;;;3.66;100.00;100771.75;5090428;28;20040;-82
2023/02/02 00:19:38;;;;;;;11.60;2.47;;;;;;;3.64;100.00;100767.41;5092294;28;20036;-78
2023/02/02 00:22:05;;;;;;;12.88;2.92;;;;;;;3.66;100.00;100774.34;5089981;28;20040;-78
2023/02/02 00:24:32;;;;;;;12.55;2.55;;;;;;;3.68;100.00;100777.81;5068988;28;20135;-78
2023/02/02 00:27:00;;;;;;;16.15;3.13;;;;;;;3.69;100.00;100780.47;5084457;28;20102;-78
2023/02/02 00:29:29;;;;;;;8.40;2.08;;;;;;;3.71;100.00;100772.72;5084714;28;20044;-77
2023/02/02 00:31:56;;;;;;;15.55;2.10;;;;;;;3.71;100.00;100775.31;5084809;28;20044;-77
2023/02/02 00:34:23;;;;;;;12.13;2.92;;;;;;;3.70;100.00;100771.81;5068463;28;20036;-77
2023/02/02 00:36:51;;;;;;;9.45;2.55;;;;;;;3.73;100.00;100766.75;5089161;28;20044;-77
2023/02/02 00:39:21;;;;;;;14.80;2.75;;;;;;;3.70;100.00;100777.00;5097229;28;20050;-79
2023/02/02 00:41:48;;;;;;;7.93;1.83;;;;;;;3.72;100.00;100772.75;5101403;28;20041;-77
2023/02/02 00:46:58;;;;;;;9.68;3.88;;;;;;;3.55;100.00;100777.56;5087499;28;20037;-78
2023/02/02 00:49:25;;;;;;;13.15;2.90;;;;;;;3.50;100.00;100776.59;5075264;28;20455;-76
2023/02/02 00:51:51;;;;;;;8.32;1.70;;;;;;;3.38;100.00;100776.34;5084700;28;20360;-78
2023/02/02 00:54:18;;;;;;;16.15;2.33;;;;;;;3.26;100.00;100782.06;5090266;28;20044;-78
2023/02/02 00:56:44;;;;;;;15.23;2.85;;;;;;;3.31;100.00;100775.28;5091380;28;20090;-77
2023/02/02 00:59:10;;;;;;;11.07;2.78;;;;;;;3.29;100.00;100779.59;5089890;28;20040;-80
2023/02/02 01:01:44;;;;;;;15.23;2.28;;;;;;;3.34;100.00;100787.44;5101024;28;20047;-77
2023/02/02 01:04:11;;;;;;;9.65;2.28;;;;;;;3.33;100.00;100789.16;5107907;28;20101;-77
2023/02/02 01:06:37;;;;;;;9.65;2.58;;;;;;;3.34;100.00;100795.19;5089438;28;20048;-76
2023/02/02 01:09:04;;;;;;;18.50;2.55;;;;;;;3.37;100.00;100796.16;5087225;28;20035;-79
2023/02/02 01:11:31;;;;;;;15.48;2.97;;;;;;;3.30;100.00;100792.53;5071149;28;20443;-77
2023/02/02 01:13:57;;;;;;;15.23;2.63;;;;;;;3.33;100.00;100798.66;5087533;28;20048;-76
2023/02/02 01:16:24;;;;;;;9.60;3.00;;;;;;;3.37;100.00;100798.72;5105421;28;20032;-77
2023/02/02 01:18:51;;;;;;;10.80;2.42;;;;;;;3.30;100.00;100810.66;5093682;28;20050;-78
2023/02/02 01:21:18;;;;;;;7.15;2.70;;;;;;;3.26;100.00;100798.50;5074400;28;20048;-77
2023/02/02 01:23:44;;;;;;;16.77;2.13;;;;;;;3.28;100.00;100801.13;5071524;28;20055;-76
2023/02/02 01:26:13;;;;;;;18.98;2.40;;;;;;;3.30;100.00;100789.97;5067004;28;20498;-79
2023/02/02 01:28:40;;;;;;;10.95;1.88;;;;;;;3.28;100.00;100783.88;5083586;28;20036;-77
2023/02/02 01:31:12;;;;;;;13.65;2.40;;;;;;;3.26;100.00;100800.19;5078994;28;20101;-78
2023/02/02 01:33:39;;;;;;;11.85;2.42;;;;;;;3.20;100.00;100800.94;5080532;28;20041;-77
2023/02/02 01:36:12;;;;;;;9.82;2.20;;;;;;;3.10;100.00;100799.84;5079582;28;20081;-82
2023/02/02 01:38:39;;;;;;;10.40;2.90;;;;;;;2.93;100.00;100811.47;5085144;28;20135;-79
2023/02/02 01:41:07;;;;;;;16.13;2.90;;;;;;;2.83;100.00;100812.09;5072701;28;20043;-80
2023/02/02 01:43:42;;;;;;;10.50;2.85;;;;;;;2.89;100.00;100807.06;5076449;28;20102;-78
2023/02/02 01:46:28;;;;;;;11.02;3.17;;;;;;;3.01;100.00;100814.25;5069866;28;20648;-77
2023/02/02 01:49:16;;;;;;;20.67;2.83;;;;;;;3.10;100.00;100824.81;5075133;28;20044;-78
2023/02/02 01:51:53;;;;;;;13.35;2.95;;;;;;;3.14;100.00;100824.94;5071888;28;20144;-78
2023/02/02 01:54:36;;;;;;;15.48;2.25;;;;;;;3.24;100.00;100822.59;5075563;28;20052;-78
2023/02/02 01:57:09;;;;;;;6.37;1.67;;;;;;;3.29;100.00;100826.16;5078380;28;20093;-83
2023/02/02 01:59:37;;;;;;;13.05;3.03;;;;;;;3.36;100.00;100828.03;5076729;28;20040;-79
2023/02/02 02:02:04;;;;;;;8.93;2.42;;;;;;;3.42;100.00;100829.91;5075141;28;20047;-81
2023/02/02 02:04:32;;;;;;;13.52;2.55;;;;;;;3.45;100.00;100832.56;5077020;28;20048;-82
2023/02/02 02:07:01;;;;;;;13.52;2.67;;;;;;;3.48;100.00;100832.63;5084924;28;20040;-80
2023/02/02 02:09:27;;;;;;;13.52;3.10;;;;;;;3.56;100.00;100828.50;5088047;28;20461;-77
2023/02/02 02:11:54;;;;;;;14.30;1.80;;;;;;;3.55;100.00;100828.47;5088979;28;20051;-80
2023/02/02 02:17:44;;;;;;;16.60;2.97;;;;;;;3.32;100.00;100836.56;5032857;28;20116;-79
2023/02/02 02:27:57;;;;;;;9.40;1.90;;;;;;;3.11;100.00;100844.69;5081740;28;20063;-77
2023/02/02 02:31:15;;;;;;;7.70;2.10;;;;;;;3.20;100.00;100857.84;5056499;28;21783;-76
2023/02/02 02:34:09;;;;;;;16.08;2.78;;;;;;;3.25;100.00;100858.84;5071365;28;20051;-77
2023/02/02 02:36:52;;;;;;;11.52;2.30;;;;;;;3.24;100.00;100871.75;5070624;28;20174;-80
2023/02/02 02:39:39;;;;;;;14.48;2.45;;;;;;;3.16;100.00;100865.50;5072846;28;20055;-82
2023/02/02 02:42:22;;;;;;;12.77;2.10;;;;;;;3.10;100.00;100879.16;5061689;28;20048;-82
2023/02/02 02:44:50;;;;;;;14.65;2.88;;;;;;;2.97;100.00;100886.59;5067449;28;20101;-77
2023/02/02 02:47:19;;;;;;;19.92;2.97;;;;;;;2.85;100.00;100888.84;5073473;28;20044;-81
2023/02/02 02:49:48;;;;;;;16.83;2.45;;;;;;;2.76;100.00;100884.31;5060687;28;20044;-78
2023/02/02 02:52:15;;;;;;;17.02;2.25;;;;;;;2.67;100.00;100880.63;5073601;28;20394;-78
2023/02/02 02:54:53;;;;;;;12.10;3.03;;;;;;;2.64;100.00;100890.03;5076284;28;20043;-76
2023/02/02 02:58:04;;;;;;;16.88;3.95;;;;;;;2.67;100.00;100899.56;5079205;28;20036;-76
2023/02/02 03:00:55;;;;;;;21.38;2.83;;;;;;;2.68;100.00;100911.69;5072562;28;20037;-77
2023/02/02 03:04:12;;;;;;;9.95;2.97;;;;;;;2.70;100.00;100899.69;5074082;28;21138;-80
2023/02/02 03:07:12;;;;;;;19.98;3.90;;;;;;;2.59;100.00;100908.84;5057246;28;20533;-81
2023/02/02 03:09:43;;;;;;;4.93;1.70;;;;;;;2.51;100.00;100910.34;5088862;28;20059;-88
2023/02/02 03:12:09;;;;;;;13.02;3.05;;;;;;;2.57;100.00;100905.31;5073585;28;20033;-84
2023/02/02 03:14:38;;;;;;;10.07;2.30;;;;;;;2.55;100.00;100902.69;5075051;28;20090;-81
2023/02/02 03:17:04;;;;;;;20.05;3.33;;;;;;;2.62;100.00;100902.06;5079159;28;20413;-77
2023/02/02 03:19:31;;;;;;;17.63;3.42;;;;;;;2.68;100.00;100908.22;5059518;28;20044;-76
2023/02/02 03:21:58;;;;;;;18.85;3.60;;;;;;;2.70;100.00;100906.53;5074143;28;20056;-77
2023/02/02 03:24:24;;;;;;;14.73;3.08;;;;;;;2.62;100.00;100894.31;5071506;28;20770;-79
2023/02/02 03:26:51;;;;;;;7.22;2.13;;;;;;;2.68;100.00;100901.34;5080954;28;20048;-82
2023/02/02 03:29:18;;;;;;;12.35;2.10;;;;;;;2.75;100.00;100899.78;5076917;28;20075;-78
2023/02/02 03:31:46;;;;;;;18.58;2.97;;;;;;;2.76;100.00;100897.22;5080160;28;20036;-77
2023/02/02 03:34:13;;;;;;;15.00;2.85;;;;;;;2.73;100.00;100909.22;5084728;28;20060;-80
2023/02/02 03:36:39;;;;;;;18.30;3.25;;;;;;;2.68;100.00;100911.69;5071581;28;20040;-77
2023/02/02 03:39:06;;;;;;;12.10;3.22;;;;;;;2.68;100.00;100910.81;5084860;28;20051;-81
2023/02/02 03:41:32;;;;;;;13.10;2.35;;;;;;;2.66;100.00;100913.34;5063978;28;20040;-78
2023/02/02 03:43:58;;;;;;;10.98;3.20;;;;;;;2.59;100.00;100917.47;5078289;28;20886;-78
2023/02/02 03:46:25;;;;;;;7.85;2.17;;;;;;;2.55;100.00;100922.50;5062688;28;20997;-77
2023/02/02 03:48:51;;;;;;;11.82;3.50;;;;;;;2.45;100.00;100930.00;5081264;28;20046;-78
2023/02/02 03:51:18;;;;;;;18.02;3.63;;;;;;;2.45;100.00;100927.44;5077706;28;20037;-78
2023/02/02 03:53:46;;;;;;;13.40;2.50;;;;;;;2.49;100.00;100923.22;5070997;28;20055;-82
2023/02/02 03:56:13;;;;;;;20.95;3.20;;;;;;;2.47;100.00;100932.63;5075755;28;20052;-80
2023/02/02 03:58:39;;;;;;;13.43;2.80;;;;;;;2.42;100.00;100931.63;5077384;28;20052;-82
2023/02/02 04:01:10;;;;;;;16.52;3.22;;;;;;;2.41;100.00;100940.19;5071201;28;20046;-83
2023/02/02 04:03:37;;;;;;;13.32;4.43;;;;;;;2.39;100.00;100929.81;5080373;28;20047;-76
2023/02/02 04:06:03;;;;;;;9.05;3.30;;;;;;;2.40;100.00;100941.91;5079873;28;20032;-77
2023/02/02 04:08:30;;;;;;;14.90;2.65;;;;;;;2.47;100.00;100953.31;5080077;28;20033;-83
2023/02/02 04:10:56;;;;;;;12.10;2.20;;;;;;;2.52;100.00;100963.78;5062438;28;20151;-77
2023/02/02 04:13:23;;;;;;;12.13;3.80;;;;;;;2.60;100.00;100957.13;5079355;28;20942;-77
2023/02/02 04:15:58;;;;;;;17.35;2.75;;;;;;;2.68;100.00;100965.97;5080495;28;20109;-76
2023/02/02 04:18:24;;;;;;;13.32;3.35;;;;;;;2.64;100.00;100967.56;5074470;28;20051;-80
2023/02/02 04:20:58;;;;;;;17.92;3.63;;;;;;;2.57;100.00;100970.81;5080468;28;20040;-81
2023/02/02 04:23:24;;;;;;;8.65;2.35;;;;;;;2.52;100.00;100976.72;5045541;28;20051;-79
2023/02/02 04:25:52;;;;;;;17.63;2.40;;;;;;;2.41;100.00;100966.94;5062937;28;20048;-80
2023/02/02 04:28:18;;;;;;;14.85;2.58;;;;;;;2.35;100.00;100971.00;5059917;28;20112;-83
2023/02/02 04:30:45;;;;;;;16.52;3.20;;;;;;;2.29;100.00;100980.38;5064661;28;20051;-82
2023/02/02 04:33:12;;;;;;;14.57;3.50;;;;;;;2.22;100.00;100968.09;5075505;28;20082;-78
2023/02/02 04:35:38;;;;;;;13.40;2.95;;;;;;;2.18;100.00;100981.72;5068122;28;20043;-82
2023/02/02 04:38:14;;;;;;;12.00;2.85;;;;;;;2.14;100.00;100974.72;5063636;28;20070;-86
2023/02/02 04:40:43;;;;;;;10.82;2.22;;;;;;;2.11;100.00;100980.69;5055129;28;21578;-80
2023/02/02 04:43:10;;;;;;;20.13;3.70;;;;;;;2.13;100.00;100981.59;5073718;28;20387;-78
2023/02/02 04:45:37;;;;;;;13.40;4.05;;;;;;;2.19;100.00;100983.50;5078205;28;20044;-79
2023/02/02 04:48:05;;;;;;;16.65;2.67;;;;;;;2.12;100.00;100978.97;5074454;28;20036;-85
2023/02/02 04:50:32;;;;;;;8.32;2.58;;;;;;;2.05;100.00;100984.78;5073301;28;20044;-81
2023/02/02 04:52:59;;;;;;;14.30;3.28;;;;;;;1.98;100.00;100982.00;5077707;28;20044;-77
2023/02/02 04:55:25;;;;;;;17.70;3.03;;;;;;;2.01;100.00;100983.81;5061906;28;20072;-81
2023/02/02 04:57:52;;;;;;;14.55;2.80;;;;;;;2.02;100.00;100995.00;5076826;28;20073;-77
2023/02/02 05:00:19;;;;;;;23.63;4.40;;;;;;;1.96;100.00;100988.81;5075702;28;20726;-79
2023/02/02 05:02:45;;;;;;;16.77;3.40;;;;;;;1.99;100.00;100985.44;5090126;28;20036;-77
2023/02/02 05:05:14;;;;;;;19.25;4.03;;;;;;;1.98;100.00;100986.25;5075337;28;20037;-80
2023/02/02 05:07:43;;;;;;;12.63;2.70;;;;;;;2.00;100.00;100984.63;5077748;28;20052;-80
2023/02/02 05:10:11;;;;;;;17.33;2.50;;;;;;;2.03;100.00;100982.13;5075538;28;20683;-83
2023/02/02 05:12:37;;;;;;;14.88;3.50;;;;;;;1.94;100.00;100995.66;5078961;28;20062;-78
2023/02/02 05:15:05;;;;;;;16.00;4.32;;;;;;;1.92;100.00;100994.69;5076937;28;20933;-85
2023/02/02 05:17:35;;;;;;;9.65;2.58;;;;;;;1.91;100.00;100990.38;5088405;27;20040;-87
2023/02/02 05:20:01;;;;;;;9.80;2.53;;;;;;;1.92;100.00;100989.53;5067992;28;21369;-80
2023/02/02 05:22:28;;;;;;;13.38;2.95;;;;;;;1.92;100.00;100997.28;5068239;28;20060;-80
2023/02/02 05:24:54;;;;;;;11.90;2.80;;;;;;;1.87;100.00;100985.94;5069727;28;20092;-80
2023/02/02 05:27:21;;;;;;;12.88;2.92;;;;;;;1.90;100.00;100992.91;5076852;28;20055;-81
2023/02/02 05:29:48;;;;;;;25.13;4.22;;;;;;;1.91;100.00;101002.41;5047276;28;20048;-78
2023/02/02 05:32:15;;;;;;;14.07;3.78;;;;;;;1.84;100.00;101003.91;5075030;28;20036;-78
2023/02/02 05:34:41;;;;;;;18.25;3.72;;;;;;;1.79;100.00;101006.34;5076024;28;20032;-83
2023/02/02 05:37:11;;;;;;;16.08;2.72;;;;;;;1.73;100.00;101008.72;5073241;28;20100;-78
2023/02/02 05:39:40;;;;;;;20.38;2.60;;;;;;;1.83;100.00;101002.16;5061806;28;20044;-79
2023/02/02 05:42:06;;;;;;;19.42;4.00;;;;;;;1.87;100.00;101009.16;5078609;28;20040;-80
2023/02/02 05:44:33;;;;;;;17.35;3.00;;;;;;;1.94;100.00;101010.25;5077027;28;20046;-82
2023/02/02 05:47:00;;;;;;;24.48;4.25;;;;;;;1.93;100.00;101018.81;5058387;28;20122;-78
2023/02/02 05:49:26;;;;;;;16.80;2.95;;;;;;;1.96;100.00;101009.47;5076502;28;20079;-78
2023/02/02 05:51:56;;;;;;;13.77;3.15;;;;;;;1.95;100.00;101023.19;5053645;28;20067;-83
2023/02/02 05:54:24;;;;;;;15.38;3.47;;;;;;;1.92;100.00;101024.81;5065201;28;20126;-78
2023/02/02 05:57:01;;;;;;;23.55;4.75;;;;;;;1.94;100.00;101030.88;5067075;28;20793;-76
2023/02/02 05:59:28;;;;;;;19.27;3.70;;;;;;;1.93;100.00;101024.88;5068992;28;20093;-80
2023/02/02 06:02:00;;;;;;;14.40;2.70;;;;;;;1.93;100.00;101026.56;5063590;28;20052;-76
2023/02/02 06:04:30;;;;;;;10.13;2.70;;;;;;;1.92;100.00;101040.31;5086268;28;20052;-77
2023/02/02 06:06:56;;;;;;;22.73;3.03;;;;;;;1.95;100.00;101033.53;5083662;28;20048;-77
2023/02/02 06:09:26;;;;;;;17.90;4.43;;;;;;;1.96;100.00;101035.28;5082104;28;20059;-77
2023/02/02 06:11:52;;;;;;;15.55;5.10;;;;;;;1.96;100.00;101037.00;5082544;28;20056;-77
2023/02/02 06:14:19;;;;;;;17.85;4.15;;;;;;;1.93;100.00;101042.94;5082181;28;20482;-76
2023/02/02 06:16:46;;;;;;;16.75;2.80;;;;;;;1.94;100.00;101042.13;5086039;28;20082;-77
2023/02/02 06:19:12;;;;;;;8.45;3.15;;;;;;;1.97;100.00;101041.34;5083587;28;20481;-77
2023/02/02 06:21:39;;;;;;;12.00;2.53;;;;;;;1.95;100.00;101049.00;5076543;28;20044;-80
2023/02/02 06:24:06;;;;;;;10.20;3.50;;;;;;;1.92;100.00;101046.34;5078672;28;20032;-86
2023/02/02 06:26:32;;;;;;;18.30;2.25;;;;;;;1.96;100.00;101053.34;5079631;28;20040;-83
2023/02/02 06:29:01;;;;;;;16.42;2.83;;;;;;;1.98;100.00;101055.97;5073815;28;20530;-77
2023/02/02 06:31:28;;;;;;;18.20;4.88;;;;;;;2.01;100.00;101055.19;5074557;28;20045;-81
2023/02/02 06:34:00;;;;;;;13.55;2.97;;;;;;;2.05;100.00;101063.13;5090827;28;21250;-81
2023/02/02 06:36:27;;;;;;;15.20;3.42;;;;;;;2.04;100.00;101066.50;5079926;28;20093;-78
2023/02/02 06:38:56;;;;;;;20.58;4.18;;;;;;;2.05;100.00;101073.44;5077199;28;20131;-81
2023/02/02 06:41:24;;;;;;;11.98;2.63;;;;;;;2.05;100.00;101077.75;5075715;28;20048;-78
2023/02/02 06:43:52;;;;;;;20.15;3.65;;;;;;;2.06;100.00;101077.78;5060140;28;20610;-78
2023/02/02 06:46:19;;;;;;;20.48;3.63;;;;;;;2.13;100.00;101079.72;5071319;28;20040;-84
2023/02/02 06:48:45;;;;;;;16.23;3.10;;;;;;;2.17;100.00;101082.44;5046833;28;20055;-85
2023/02/02 06:51:12;;;;;;;16.98;3.28;;;;;;;2.23;100.00;101077.44;5079163;28;20092;-81
2023/02/02 06:53:38;;;;;;;21.65;4.63;;;;;;;2.27;100.00;101079.31;5066877;28;20055;-79
2023/02/02 06:56:09;;;;;;;21.98;3.10;;;;;;;2.29;100.00;101072.47;5072458;28;20180;-82
2023/02/02 06:58:36;;;;;;;14.20;3.35;;;;;;;2.31;100.00;101073.41;5081555;28;20040;-78
2023/02/02 07:01:09;;;;;;;22.27;3.08;;;;;;;2.27;100.00;101072.44;5071387;28;20054;-76
2023/02/02 07:03:36;;;;;;;14.87;4.37;;;;;;;2.35;100.00;101067.50;5079360;28;20127;-80
2023/02/02 07:06:21;;;;;;;14.85;5.13;;;;;;;2.38;100.00;101075.34;5080220;28;20041;-77
2023/02/02 07:08:48;;;;;;;21.60;3.92;;;;;;;2.36;100.00;101076.13;5067588;28;20056;-78
2023/02/02 07:11:16;;;;;;;13.15;2.35;;;;;;;2.37;100.00;101083.03;5068800;28;20057;-81
2023/02/02 07:13:45;;;;;;;18.00;3.55;;;;;;;2.38;100.00;101088.25;5068537;28;20071;-79
2023/02/02 07:16:12;;;;;;;11.85;3.05;;;;;;;2.39;100.00;101084.84;5083302;28;20071;-79
2023/02/02 07:18:41;;;;;;;16.02;2.95;;;;;;;2.40;100.00;101099.53;5070986;28;20048;-82
2023/02/02 07:21:08;;;;;;;15.60;3.00;;;;;;;2.42;100.00;101097.00;5086267;28;20074;-80
2023/02/02 07:23:35;;;;;;;13.57;3.03;;;;;;;2.45;100.00;101097.06;5075622;28;20078;-81
2023/02/02 07:26:08;;;;;;;20.88;3.22;;;;;;;2.43;100.00;101099.63;5086466;28;20067;-80
2023/02/02 07:28:36;;;;;;;25.07;3.67;;;;;;;2.42;100.00;101109.91;5089377;28;20044;-82
2023/02/02 07:31:18;;;;;;;14.50;4.03;;;;;;;2.42;100.00;101109.91;5088468;28;20306;-78
2023/02/02 07:33:46;;;;;;;23.77;4.32;;;;;;;2.42;100.00;101121.09;5080876;28;20044;-79
2023/02/02 07:36:16;;;;;;;10.75;2.60;;;;;;;2.45;100.00;101110.00;5067421;28;20451;-78
2023/02/02 07:38:44;;;;;;;14.55;2.53;;;;;;;2.55;100.00;101121.50;5070757;28;20483;-80
2023/02/02 07:41:11;;;;;;;16.60;2.83;;;;;;;2.57;100.00;101112.97;5086144;28;20467;-83
2023/02/02 07:43:37;;;;;;;15.95;3.08;;;;;;;2.58;100.00;101125.06;5082858;28;20043;-79
2023/02/02 07:46:08;;;;;;;14.85;3.20;;;;;;;2.62;100.00;101124.34;5087463;28;20048;-79
2023/02/02 07:48:36;;;;;;;10.05;2.65;;;;;;;2.68;100.00;101122.78;5085111;28;20042;-80
2023/02/02 07:51:09;;;;;;;14.27;2.45;;;;;;;2.69;100.00;101134.88;5085697;28;20036;-78
2023/02/02 07:53:36;;;;;;;20.52;4.63;;;;;;;2.73;100.00;101136.72;5082845;28;20140;-78
2023/02/02 07:56:14;;;;;;;14.85;2.85;;;;;;;2.83;100.00;101131.00;5082810;28;20432;-79
2023/02/02 07:58:42;;;;;;;8.75;2.80;;;;;;;2.89;100.00;101136.34;5067073;28;20036;-78
2023/02/02 08:01:12;;;;;;;11.90;2.55;;;;;;;2.97;100.00;101141.75;5089293;28;20040;-78
2023/02/02 08:03:41;;;;;;;10.00;2.67;;;;;;;2.98;100.00;101141.78;5083239;28;20044;-78
2023/02/02 08:06:17;;;;;;;12.07;2.63;;;;;;;3.01;100.00;101145.31;5089221;28;20039;-79
2023/02/02 08:08:44;;;;;;;18.45;3.20;;;;;;;3.02;100.00;101147.06;5097548;28;20143;-78
2023/02/02 08:11:13;;;;;;;14.43;2.60;;;;;;;3.14;100.00;101150.00;5081862;28;20043;-78
2023/02/02 08:13:42;;;;;;;15.10;3.95;;;;;;;3.26;100.00;101159.81;5062479;28;20047;-80
2023/02/02 08:16:11;;;;;;;14.23;3.08;;;;;;;3.33;100.00;101161.78;5085981;28;20398;-78
2023/02/02 08:18:38;;;;;;;17.00;3.42;;;;;;;3.42;100.00;101169.81;5075680;28;20058;-81
2023/02/02 08:21:07;;;;;;;22.35;3.60;;;;;;;3.50;100.00;101172.59;5074885;28;20071;-80
2023/02/02 08:23:35;;;;;;;13.70;3.40;;;;;;;3.57;100.00;101171.97;5065720;28;20098;-78
2023/02/02 08:26:13;;;;;;;10.55;2.75;;;;;;;3.63;100.00;101176.44;5073011;28;20502;-78
2023/02/02 08:28:42;;;;;;;10.10;3.88;;;;;;;3.73;100.00;101182.72;5065164;28;20047;-80
2023/02/02 08:31:25;;;;;;;11.35;3.35;;;;;;;3.77;100.00;101182.00;5080514;28;20048;-77
2023/02/02 08:33:52;;;;;;;11.85;3.95;;;;;;;3.81;100.00;101176.06;5078635;28;20049;-76
2023/02/02 08:36:21;;;;;;;21.90;3.28;;;;;;;3.84;100.00;101180.44;5074472;28;20044;-77
2023/02/02 08:38:49;;;;;;;15.18;2.85;;;;;;;3.91;100.00;101184.94;5076697;28;20045;-76
2023/02/02 08:41:20;;;;;;;14.45;3.17;;;;;;;3.94;100.00;101193.69;5081821;28;20040;-78
2023/02/02 08:43:46;;;;;;;9.10;2.72;;;;;;;3.97;100.00;101183.38;5077074;28;20040;-78
2023/02/02 08:46:16;;;;;;;13.05;3.25;;;;;;;4.00;100.00;101185.19;5077731;28;20051;-76
2023/02/02 08:48:42;;;;;;;12.68;2.95;;;;;;;4.03;100.00;101192.16;5079155;28;20474;-77
2023/02/02 08:51:13;;;;;;;9.90;2.20;;;;;;;4.03;100.00;101190.47;5070025;28;20234;-81
2023/02/02 08:53:39;;;;;;;11.27;2.35;;;;;;;4.06;100.00;101193.13;5080793;28;20438;-77
2023/02/02 08:56:11;;;;;;;8.98;2.10;;;;;;;4.06;100.00;101202.63;5068126;28;20973;-82
2023/02/02 08:58:37;;;;;;;9.15;1.80;;;;;;;4.06;100.00;101206.06;5065606;28;21694;-78
2023/02/02 09:01:07;;;;;;;14.02;2.20;;;;;;;4.08;100.00;101209.59;5066883;28;20059;-83
2023/02/02 09:03:34;;;;;;;9.82;3.03;;;;;;;4.10;100.00;101215.69;5069206;28;20040;-77
2023/02/02 09:06:10;;;;;;;12.75;1.88;;;;;;;4.14;100.00;101220.09;5062325;28;20056;-76
2023/02/02 09:08:37;;;;;;;15.38;2.72;;;;;;;4.20;100.00;101213.31;5071111;28;20109;-78
2023/02/02 09:11:19;;;;;;;6.78;2.00;;;;;;;4.25;100.00;101219.50;5080130;28;20066;-77
2023/02/02 09:13:48;;;;;;;7.28;2.10;;;;;;;4.29;100.00;101216.19;5080387;28;20147;-76
2023/02/02 09:16:17;;;;;;;9.93;2.17;;;;;;;4.34;100.00;101221.47;5076358;28;20048;-78
2023/02/02 09:18:45;;;;;;;10.25;1.60;;;;;;;4.39;100.00;101227.66;5065678;28;20043;-77
2023/02/02 09:21:15;;;;;;;8.90;1.63;;;;;;;4.43;100.00;101235.56;5080124;28;20123;-77
2023/02/02 09:23:44;;;;;;;9.85;2.70;;;;;;;4.45;100.00;101233.00;5080051;28;20047;-77
2023/02/02 09:26:24;;;;;;;6.45;1.63;;;;;;;4.47;100.00;101233.91;5076477;28;20482;-80
2023/02/02 09:29:04;;;;;;;8.95;1.88;;;;;;;4.50;100.00;101244.38;5064217;28;20047;-78
2023/02/02 09:31:35;;;;;;;8.35;2.42;;;;;;;4.50;100.00;101235.69;5045495;28;20044;-77
2023/02/02 09:34:03;;;;;;;6.20;1.20;;;;;;;4.49;100.00;101250.38;5066005;28;20048;-78
2023/02/02 09:36:31;;;;;;;10.80;1.75;;;;;;;4.52;100.00;101250.44;5071004;28;20710;-78
2023/02/02 09:38:57;;;;;;;8.35;1.42;;;;;;;4.68;100.00;101262.09;5064820;28;20062;-76
2023/02/02 09:41:39;;;;;;;4.63;1.17;;;;;;;4.88;100.00;101261.72;5060186;28;20051;-80
2023/02/02 09:44:22;;;;;;;10.63;1.63;;;;;;;4.98;100.00;101261.09;5074313;28;20548;-82
2023/02/02 09:47:12;;;;;;;3.93;1.60;;;;;;;5.01;100.00;101270.69;5066496;28;20135;-77
2023/02/02 09:49:52;;;;;;;7.90;1.63;;;;;;;5.00;100.00;101264.59;5063830;28;20154;-79
2023/02/02 09:52:33;;;;;;;7.25;1.75;;;;;;;5.07;100.00;101257.81;5065626;28;20071;-79
2023/02/02 09:55:09;;;;;;;12.05;3.08;;;;;;;5.11;100.00;101273.53;5074497;28;20044;-79
2023/02/02 09:57:43;;;;;;;6.28;1.00;;;;;;;5.17;100.00;101274.50;5067000;28;20544;-77
2023/02/02 10:00:33;;;;;;;10.90;1.30;;;;;;;5.27;100.00;101282.53;5075129;28;20120;-79
2023/02/02 10:03:12;;;;;;;6.05;1.95;;;;;;;5.30;100.00;101289.50;5078270;28;20048;-76
2023/02/02 10:05:54;;;;;;;1.95;1.40;;;;;;;5.32;100.00;101290.44;5077824;28;20042;-77
2023/02/02 10:08:31;;;;;;;5.15;1.38;;;;;;;5.36;100.00;101291.34;5083682;28;20128;-84
2023/02/02 10:11:00;;;;;;;6.30;1.15;;;;;;;5.37;100.00;101294.00;5075650;28;20036;-79
2023/02/02 10:13:36;;;;;;;5.13;0.85;;;;;;;5.39;99.77;101300.09;5071281;28;20088;-76
2023/02/02 10:16:16;;;;;;;12.48;1.52;;;;;;;5.51;99.77;101301.22;5078251;28;20440;-79
2023/02/02 10:18:57;;;;;;;6.53;1.92;;;;;;;5.58;99.43;101310.88;5076976;28;20044;-78
2023/02/02 10:22:05;;;;;;;6.50;1.50;;;;;;;5.57;98.86;101311.75;5076670;28;20564;-77
2023/02/02 10:24:34;;;;;;;5.50;1.40;;;;;;;5.53;98.65;101316.00;5082015;28;20095;-78
2023/02/02 10:27:06;;;;;;;5.47;1.30;;;;;;;5.49;99.44;101313.28;5075642;28;20450;-78
2023/02/02 10:29:57;;;;;;;8.30;1.75;;;;;;;5.43;98.74;101314.91;5062525;28;20058;-79
2023/02/02 10:32:35;;;;;;;11.40;3.33;;;;;;;5.48;99.01;101317.63;5075454;28;20063;-83
2023/02/02 10:35:36;;;;;;;13.85;2.88;;;;;;;5.54;98.61;101311.69;5057585;28;20040;-77
2023/02/02 10:38:09;;;;;;;8.20;1.30;;;;;;;5.60;97.72;101320.47;5073029;28;20115;-79
2023/02/02 10:40:59;;;;;;;7.40;1.67;;;;;;;5.70;97.37;101325.91;5094852;28;20044;-78
2023/02/02 10:44:00;;;;;;;5.47;1.65;;;;;;;5.74;97.32;101331.19;5067330;28;20067;-77
2023/02/02 10:46:43;;;;;;;10.00;1.67;;;;;;;5.76;96.31;101332.09;5084735;28;20040;-79
2023/02/02 10:49:14;;;;;;;5.90;1.55;;;;;;;5.79;96.91;101333.88;5086512;28;20052;-77
2023/02/02 10:51:46;;;;;;;10.88;4.10;;;;;;;5.91;97.49;101325.47;5084072;28;20047;-81
2023/02/02 10:54:37;;;;;;;7.82;1.70;;;;;;;5.96;96.25;101324.72;5083230;28;20047;-78
2023/02/02 10:57:07;;;;;;;7.68;1.52;;;;;;;5.92;96.32;101316.84;5082304;28;20042;-78
2023/02/02 10:59:50;;;;;;;8.50;1.20;;;;;;;5.88;95.68;101333.19;5077781;28;20045;-80
2023/02/02 11:02:16;;;;;;;9.82;3.88;;;;;;;5.82;96.96;101344.34;5077777;28;20355;-79
2023/02/02 11:07:27;;;;;;;12.10;2.97;;;;;;;5.87;97.27;101360.91;5080905;28;20041;-78
2023/02/02 11:09:54;;;;;;;9.35;1.90;;;;;;;5.93;96.37;101361.03;5086562;28;20039;-79
2023/02/02 11:12:37;;;;;;;12.07;2.35;;;;;;;5.99;95.24;101367.25;5080156;28;20087;-78
2023/02/02 11:15:24;;;;;;;9.23;2.63;;;;;;;6.05;94.51;101359.56;5080233;28;20573;-79
2023/02/02 11:17:50;;;;;;;6.60;1.40;;;;;;;6.15;94.96;101361.50;5083462;28;20055;-78
2023/02/02 11:20:33;;;;;;;7.47;1.80;;;;;;;6.24;94.72;101368.63;5084039;28;20048;-78
2023/02/02 11:23:03;;;;;;;11.07;2.97;;;;;;;6.27;93.18;101359.19;5098131;28;20401;-79
2023/02/02 11:25:34;;;;;;;4.47;1.42;;;;;;;6.29;93.58;101356.59;5097663;28;20044;-83
2023/02/02 11:28:17;;;;;;;10.43;1.98;;;;;;;6.39;93.03;101363.75;5119373;28;20108;-83
2023/02/02 11:30:49;;;;;;;22.55;2.60;;;;;;;6.42;92.17;101365.53;5092506;28;20037;-81
2023/02/02 11:33:25;;;;;;;9.20;1.80;;;;;;;6.40;92.30;101368.09;5086964;28;20040;-78
2023/02/02 11:35:58;;;;;;;8.95;2.88;;;;;;;6.34;92.49;101364.50;5082987;28;20044;-82
2023/02/02 11:38:25;;;;;;;7.03;1.53;;;;;;;6.24;92.53;101373.84;5064653;28;20068;-80
2023/02/02 11:41:05;;;;;;;11.98;2.17;;;;;;;6.15;92.66;101377.09;5064077;28;20048;-78
2023/02/02 11:43:52;;;;;;;8.43;2.00;;;;;;;6.15;93.29;101374.50;5079184;28;20040;-80
2023/02/02 11:46:27;;;;;;;10.13;1.85;;;;;;;6.20;93.79;101375.47;5074056;28;20062;-79
2023/02/02 11:49:12;;;;;;;13.75;3.08;;;;;;;6.31;93.87;101370.53;5076380;28;20090;-80
2023/02/02 11:51:38;;;;;;;4.82;3.15;;;;;;;6.40;92.59;101370.69;5080587;28;20036;-83
2023/02/02 11:54:20;;;;;;;12.93;2.63;;;;;;;6.41;91.82;101369.88;5062437;28;20047;-76